sensor_id;sensor_type;location;lat;lon;timestamp;temperature;humidity
45008;DHT22;30743;52.008;5.644;2024-03-17T00:02:21;11.80;99.90
45008;DHT22;30743;52.008;5.644;2024-03-17T00:04:47;11.80;99.90
45008;DHT22;30743;52.008;5.644;2024-03-17T00:07:13;11.90;99.90
45008;DHT22;30743;52.008;5.644;2024-03-17T00:09:39;11.90;99.90
45008;DHT22;30743;52.008;5.644;2024-03-17T00:12:05;11.90;99.90
45008;DHT22;30743;52.008;5.644;2024-03-17T00:14:31;11.90;99.90
45008;DHT22;30743;52.008;5.644;2024-03-17T00:16:57;11.80;99.90
45008;DHT22;30743;52.008;5.644;2024-03-17T00:19:26;11.60;99.90
45008;DHT22;30743;52.008;5.644;2024-03-17T00:21:51;11.80;99.90
45008;DHT22;30743;52.008;5.644;2024-03-17T00:24:18;11.90;99.90
45008;DHT22;30743;52.008;5.644;2024-03-17T00:26:43;11.90;99.90
45008;DHT22;30743;52.008;5.644;2024-03-17T00:29:10;11.90;99.90
45008;DHT22;30743;52.008;5.644;2024-03-17T00:31:35;11.90;99.90
45008;DHT22;30743;52.008;5.644;2024-03-17T00:34:02;12.00;99.90
45008;DHT22;30743;52.008;5.644;2024-03-17T00:36:28;12.00;99.90
45008;DHT22;30743;52.008;5.644;2024-03-17T00:38:53;12.00;99.90
45008;DHT22;30743;52.008;5.644;2024-03-17T00:41:19;11.90;99.90
45008;DHT22;30743;52.008;5.644;2024-03-17T00:43:45;11.90;99.90
45008;DHT22;30743;52.008;5.644;2024-03-17T00:46:10;11.90;99.90
45008;DHT22;30743;52.008;5.644;2024-03-17T00:48:36;11.80;99.90
45008;DHT22;30743;52.008;5.644;2024-03-17T00:51:01;11.80;99.90
45008;DHT22;30743;52.008;5.644;2024-03-17T00:53:28;11.80;99.90
45008;DHT22;30743;52.008;5.644;2024-03-17T00:55:55;11.70;99.90
45008;DHT22;30743;52.008;5.644;2024-03-17T00:58:24;11.70;99.90
45008;DHT22;30743;52.008;5.644;2024-03-17T01:00:50;11.70;99.90
45008;DHT22;30743;52.008;5.644;2024-03-17T01:03:16;11.80;99.90
45008;DHT22;30743;52.008;5.644;2024-03-17T01:05:42;11.80;99.90
45008;DHT22;30743;52.008;5.644;2024-03-17T01:08:10;11.90;99.90
45008;DHT22;30743;52.008;5.644;2024-03-17T01:10:42;12.00;99.90
45008;DHT22;30743;52.008;5.644;2024-03-17T01:13:08;11.90;99.90
45008;DHT22;30743;52.008;5.644;2024-03-17T01:15:36;12.10;99.90
45008;DHT22;30743;52.008;5.644;2024-03-17T01:18:05;12.10;99.90
45008;DHT22;30743;52.008;5.644;2024-03-17T01:20:31;12.00;99.90
45008;DHT22;30743;52.008;5.644;2024-03-17T01:22:57;12.00;99.90
45008;DHT22;30743;52.008;5.644;2024-03-17T01:25:23;12.00;99.90
45008;DHT22;30743;52.008;5.644;2024-03-17T01:27:51;12.00;99.90
45008;DHT22;30743;52.008;5.644;2024-03-17T01:30:17;12.00;99.90
45008;DHT22;30743;52.008;5.644;2024-03-17T01:32:44;11.90;99.90
45008;DHT22;30743;52.008;5.644;2024-03-17T01:35:09;11.90;99.90
45008;DHT22;30743;52.008;5.644;2024-03-17T01:37:35;11.80;99.90
45008;DHT22;30743;52.008;5.644;2024-03-17T01:40:01;11.80;99.90
45008;DHT22;30743;52.008;5.644;2024-03-17T01:42:26;11.80;99.90
45008;DHT22;30743;52.008;5.644;2024-03-17T01:44:52;11.80;99.90
45008;DHT22;30743;52.008;5.644;2024-03-17T01:47:18;11.70;99.90
45008;DHT22;30743;52.008;5.644;2024-03-17T01:49:47;11.70;99.90
45008;DHT22;30743;52.008;5.644;2024-03-17T01:52:14;11.90;99.90
45008;DHT22;30743;52.008;5.644;2024-03-17T01:54:41;11.70;99.90
45008;DHT22;30743;52.008;5.644;2024-03-17T01:57:07;11.80;99.90
45008;DHT22;30743;52.008;5.644;2024-03-17T01:59:33;11.90;99.90
45008;DHT22;30743;52.008;5.644;2024-03-17T02:01:59;11.80;99.90
45008;DHT22;30743;52.008;5.644;2024-03-17T02:04:25;11.90;99.90
45008;DHT22;30743;52.008;5.644;2024-03-17T02:06:50;11.90;99.90
45008;DHT22;30743;52.008;5.644;2024-03-17T02:09:16;11.90;99.90
45008;DHT22;30743;52.008;5.644;2024-03-17T02:11:44;12.00;99.90
45008;DHT22;30743;52.008;5.644;2024-03-17T02:14:09;12.00;99.90
45008;DHT22;30743;52.008;5.644;2024-03-17T02:16:36;12.00;99.90
45008;DHT22;30743;52.008;5.644;2024-03-17T02:19:02;11.90;99.90
45008;DHT22;30743;52.008;5.644;2024-03-17T02:21:28;11.90;99.90
45008;DHT22;30743;52.008;5.644;2024-03-17T02:23:56;11.90;99.90
45008;DHT22;30743;52.008;5.644;2024-03-17T02:26:25;11.70;99.90
45008;DHT22;30743;52.008;5.644;2024-03-17T02:28:51;11.80;99.90
45008;DHT22;30743;52.008;5.644;2024-03-17T02:31:17;11.80;99.90
45008;DHT22;30743;52.008;5.644;2024-03-17T02:33:44;11.80;99.90
45008;DHT22;30743;52.008;5.644;2024-03-17T02:36:10;11.80;99.90
45008;DHT22;30743;52.008;5.644;2024-03-17T02:38:40;11.90;99.90
45008;DHT22;30743;52.008;5.644;2024-03-17T02:41:25;11.90;99.90
45008;DHT22;30743;52.008;5.644;2024-03-17T02:43:51;11.90;99.90
45008;DHT22;30743;52.008;5.644;2024-03-17T02:46:18;12.10;99.90
45008;DHT22;30743;52.008;5.644;2024-03-17T02:48:45;12.10;99.90
45008;DHT22;30743;52.008;5.644;2024-03-17T02:51:13;12.20;99.90
45008;DHT22;30743;52.008;5.644;2024-03-17T02:53:41;12.30;99.90
45008;DHT22;30743;52.008;5.644;2024-03-17T02:56:06;12.40;99.90
45008;DHT22;30743;52.008;5.644;2024-03-17T02:58:35;12.40;99.90
45008;DHT22;30743;52.008;5.644;2024-03-17T03:01:01;12.50;99.90
45008;DHT22;30743;52.008;5.644;2024-03-17T03:03:27;12.40;99.90
45008;DHT22;30743;52.008;5.644;2024-03-17T03:05:52;12.20;99.90
45008;DHT22;30743;52.008;5.644;2024-03-17T03:08:18;11.90;99.90
45008;DHT22;30743;52.008;5.644;2024-03-17T03:10:44;11.70;99.90
45008;DHT22;30743;52.008;5.644;2024-03-17T03:13:11;11.60;99.90
45008;DHT22;30743;52.008;5.644;2024-03-17T03:15:36;11.70;99.90
45008;DHT22;30743;52.008;5.644;2024-03-17T03:18:02;11.60;99.90
45008;DHT22;30743;52.008;5.644;2024-03-17T03:20:27;11.70;99.90
45008;DHT22;30743;52.008;5.644;2024-03-17T03:22:54;11.70;99.90
45008;DHT22;30743;52.008;5.644;2024-03-17T03:25:19;11.70;99.90
45008;DHT22;30743;52.008;5.644;2024-03-17T03:27:45;11.80;99.90
45008;DHT22;30743;52.008;5.644;2024-03-17T03:30:11;11.80;99.90
45008;DHT22;30743;52.008;5.644;2024-03-17T03:32:37;11.80;99.90
45008;DHT22;30743;52.008;5.644;2024-03-17T03:35:04;11.70;99.90
45008;DHT22;30743;52.008;5.644;2024-03-17T03:37:31;11.60;99.90
45008;DHT22;30743;52.008;5.644;2024-03-17T03:39:57;11.50;99.90
45008;DHT22;30743;52.008;5.644;2024-03-17T03:42:24;11.60;99.90
45008;DHT22;30743;52.008;5.644;2024-03-17T03:44:49;11.60;99.90
45008;DHT22;30743;52.008;5.644;2024-03-17T03:47:15;11.60;99.90
45008;DHT22;30743;52.008;5.644;2024-03-17T03:49:40;11.70;99.90
45008;DHT22;30743;52.008;5.644;2024-03-17T03:52:06;11.80;99.90
45008;DHT22;30743;52.008;5.644;2024-03-17T03:54:32;11.70;99.90
45008;DHT22;30743;52.008;5.644;2024-03-17T03:56:57;11.60;99.90
45008;DHT22;30743;52.008;5.644;2024-03-17T03:59:24;11.70;99.90
45008;DHT22;30743;52.008;5.644;2024-03-17T04:01:50;11.70;99.90
45008;DHT22;30743;52.008;5.644;2024-03-17T04:04:16;11.40;99.90
45008;DHT22;30743;52.008;5.644;2024-03-17T04:06:41;11.40;99.90
45008;DHT22;30743;52.008;5.644;2024-03-17T04:09:07;11.40;99.90
45008;DHT22;30743;52.008;5.644;2024-03-17T04:11:34;11.40;99.90
45008;DHT22;30743;52.008;5.644;2024-03-17T04:14:00;11.40;99.90
45008;DHT22;30743;52.008;5.644;2024-03-17T04:16:26;11.40;99.90
45008;DHT22;30743;52.008;5.644;2024-03-17T04:18:52;11.50;99.90
45008;DHT22;30743;52.008;5.644;2024-03-17T04:21:17;11.60;99.90
45008;DHT22;30743;52.008;5.644;2024-03-17T04:23:43;11.60;99.90
45008;DHT22;30743;52.008;5.644;2024-03-17T04:26:09;11.60;99.90
45008;DHT22;30743;52.008;5.644;2024-03-17T04:28:35;11.60;99.90
45008;DHT22;30743;52.008;5.644;2024-03-17T04:31:05;11.60;99.90
45008;DHT22;30743;52.008;5.644;2024-03-17T04:33:34;11.60;99.90
45008;DHT22;30743;52.008;5.644;2024-03-17T04:36:01;11.60;99.90
45008;DHT22;30743;52.008;5.644;2024-03-17T04:38:29;11.50;99.90
45008;DHT22;30743;52.008;5.644;2024-03-17T04:40:55;11.70;99.90
45008;DHT22;30743;52.008;5.644;2024-03-17T04:43:32;11.60;99.90
45008;DHT22;30743;52.008;5.644;2024-03-17T04:46:03;11.70;99.90
45008;DHT22;30743;52.008;5.644;2024-03-17T04:48:30;11.80;99.90
45008;DHT22;30743;52.008;5.644;2024-03-17T04:50:55;11.90;99.90
45008;DHT22;30743;52.008;5.644;2024-03-17T04:53:21;12.00;99.90
45008;DHT22;30743;52.008;5.644;2024-03-17T04:55:46;12.10;99.90
45008;DHT22;30743;52.008;5.644;2024-03-17T04:58:12;12.20;99.90
45008;DHT22;30743;52.008;5.644;2024-03-17T05:00:37;12.30;99.90
45008;DHT22;30743;52.008;5.644;2024-03-17T05:03:03;12.20;99.90
45008;DHT22;30743;52.008;5.644;2024-03-17T05:05:29;12.30;99.90
45008;DHT22;30743;52.008;5.644;2024-03-17T05:07:54;12.20;99.90
45008;DHT22;30743;52.008;5.644;2024-03-17T05:10:20;12.30;99.90
45008;DHT22;30743;52.008;5.644;2024-03-17T05:12:46;12.30;99.90
45008;DHT22;30743;52.008;5.644;2024-03-17T05:15:12;12.20;99.90
45008;DHT22;30743;52.008;5.644;2024-03-17T05:17:37;12.20;99.90
45008;DHT22;30743;52.008;5.644;2024-03-17T05:20:03;12.30;99.90
45008;DHT22;30743;52.008;5.644;2024-03-17T05:22:30;12.30;99.90
45008;DHT22;30743;52.008;5.644;2024-03-17T05:24:56;12.20;99.90
45008;DHT22;30743;52.008;5.644;2024-03-17T05:27:22;12.40;99.90
45008;DHT22;30743;52.008;5.644;2024-03-17T05:29:47;12.40;99.90
45008;DHT22;30743;52.008;5.644;2024-03-17T05:32:13;12.50;99.90
45008;DHT22;30743;52.008;5.644;2024-03-17T05:34:38;12.50;99.90
45008;DHT22;30743;52.008;5.644;2024-03-17T05:37:04;12.40;99.90
45008;DHT22;30743;52.008;5.644;2024-03-17T05:39:30;12.40;99.90
45008;DHT22;30743;52.008;5.644;2024-03-17T05:41:56;12.30;99.90
45008;DHT22;30743;52.008;5.644;2024-03-17T05:44:21;12.20;99.90
45008;DHT22;30743;52.008;5.644;2024-03-17T05:46:47;12.30;99.90
45008;DHT22;30743;52.008;5.644;2024-03-17T05:49:14;12.20;99.90
45008;DHT22;30743;52.008;5.644;2024-03-17T05:51:39;12.30;99.90
45008;DHT22;30743;52.008;5.644;2024-03-17T05:54:05;12.30;99.90
45008;DHT22;30743;52.008;5.644;2024-03-17T05:56:31;12.20;99.90
45008;DHT22;30743;52.008;5.644;2024-03-17T05:58:56;12.30;99.90
45008;DHT22;30743;52.008;5.644;2024-03-17T06:01:22;12.30;99.90
45008;DHT22;30743;52.008;5.644;2024-03-17T06:03:48;12.30;99.90
45008;DHT22;30743;52.008;5.644;2024-03-17T06:06:13;12.40;99.90
45008;DHT22;30743;52.008;5.644;2024-03-17T06:08:39;12.50;99.90
45008;DHT22;30743;52.008;5.644;2024-03-17T06:11:06;12.60;99.90
45008;DHT22;30743;52.008;5.644;2024-03-17T06:13:32;12.40;99.90
45008;DHT22;30743;52.008;5.644;2024-03-17T06:15:57;12.50;99.90
45008;DHT22;30743;52.008;5.644;2024-03-17T06:18:26;12.50;99.90
45008;DHT22;30743;52.008;5.644;2024-03-17T06:20:52;12.60;99.90
45008;DHT22;30743;52.008;5.644;2024-03-17T06:23:17;12.60;99.90
45008;DHT22;30743;52.008;5.644;2024-03-17T06:25:44;12.60;99.90
45008;DHT22;30743;52.008;5.644;2024-03-17T06:28:11;12.70;99.90
45008;DHT22;30743;52.008;5.644;2024-03-17T06:30:40;12.70;99.90
45008;DHT22;30743;52.008;5.644;2024-03-17T06:33:06;12.80;99.90
45008;DHT22;30743;52.008;5.644;2024-03-17T06:35:31;13.00;99.90
45008;DHT22;30743;52.008;5.644;2024-03-17T06:38:00;12.90;99.90
45008;DHT22;30743;52.008;5.644;2024-03-17T06:40:26;13.00;99.90
45008;DHT22;30743;52.008;5.644;2024-03-17T06:42:52;13.10;99.90
45008;DHT22;30743;52.008;5.644;2024-03-17T06:45:21;13.10;99.90
45008;DHT22;30743;52.008;5.644;2024-03-17T06:47:46;13.10;99.90
45008;DHT22;30743;52.008;5.644;2024-03-17T06:50:12;13.00;99.90
45008;DHT22;30743;52.008;5.644;2024-03-17T06:52:38;13.00;99.90
45008;DHT22;30743;52.008;5.644;2024-03-17T06:55:05;12.90;99.90
45008;DHT22;30743;52.008;5.644;2024-03-17T06:57:32;13.00;99.90
45008;DHT22;30743;52.008;5.644;2024-03-17T06:59:59;13.00;99.90
45008;DHT22;30743;52.008;5.644;2024-03-17T07:02:25;13.10;99.90
45008;DHT22;30743;52.008;5.644;2024-03-17T07:04:50;13.00;99.90
45008;DHT22;30743;52.008;5.644;2024-03-17T07:07:16;13.00;99.90
45008;DHT22;30743;52.008;5.644;2024-03-17T07:09:42;12.80;99.90
45008;DHT22;30743;52.008;5.644;2024-03-17T07:12:08;12.70;99.90
45008;DHT22;30743;52.008;5.644;2024-03-17T07:14:35;12.70;99.90
45008;DHT22;30743;52.008;5.644;2024-03-17T07:17:00;12.90;99.90
45008;DHT22;30743;52.008;5.644;2024-03-17T07:19:26;12.80;99.90
45008;DHT22;30743;52.008;5.644;2024-03-17T07:21:51;12.70;99.90
45008;DHT22;30743;52.008;5.644;2024-03-17T07:24:17;12.70;99.90
45008;DHT22;30743;52.008;5.644;2024-03-17T07:26:42;12.70;99.90
45008;DHT22;30743;52.008;5.644;2024-03-17T07:29:08;12.60;99.90
45008;DHT22;30743;52.008;5.644;2024-03-17T07:31:34;12.70;99.90
45008;DHT22;30743;52.008;5.644;2024-03-17T07:34:00;12.80;99.90
45008;DHT22;30743;52.008;5.644;2024-03-17T07:36:25;12.50;99.90
45008;DHT22;30743;52.008;5.644;2024-03-17T07:38:51;12.70;99.90
45008;DHT22;30743;52.008;5.644;2024-03-17T07:41:18;12.60;99.90
45008;DHT22;30743;52.008;5.644;2024-03-17T07:43:44;12.70;99.90
45008;DHT22;30743;52.008;5.644;2024-03-17T07:46:11;12.70;99.90
45008;DHT22;30743;52.008;5.644;2024-03-17T07:48:38;12.40;99.90
45008;DHT22;30743;52.008;5.644;2024-03-17T07:51:06;12.60;99.90
45008;DHT22;30743;52.008;5.644;2024-03-17T07:53:36;12.70;99.90
45008;DHT22;30743;52.008;5.644;2024-03-17T07:56:03;12.80;99.90
45008;DHT22;30743;52.008;5.644;2024-03-17T07:58:30;12.90;99.90
45008;DHT22;30743;52.008;5.644;2024-03-17T08:01:02;12.90;99.90
45008;DHT22;30743;52.008;5.644;2024-03-17T08:03:29;13.30;99.90
45008;DHT22;30743;52.008;5.644;2024-03-17T08:05:55;13.30;99.90
45008;DHT22;30743;52.008;5.644;2024-03-17T08:08:20;13.70;99.90
45008;DHT22;30743;52.008;5.644;2024-03-17T08:10:46;14.10;99.90
45008;DHT22;30743;52.008;5.644;2024-03-17T08:13:16;14.60;99.90
45008;DHT22;30743;52.008;5.644;2024-03-17T08:15:43;15.00;99.90
45008;DHT22;30743;52.008;5.644;2024-03-17T08:18:09;15.10;99.90
45008;DHT22;30743;52.008;5.644;2024-03-17T08:20:42;15.00;99.90
45008;DHT22;30743;52.008;5.644;2024-03-17T08:23:09;14.60;99.90
45008;DHT22;30743;52.008;5.644;2024-03-17T08:25:36;14.60;99.90
45008;DHT22;30743;52.008;5.644;2024-03-17T08:28:02;14.30;99.90
45008;DHT22;30743;52.008;5.644;2024-03-17T08:30:28;14.20;99.90
45008;DHT22;30743;52.008;5.644;2024-03-17T08:32:54;14.00;99.90
45008;DHT22;30743;52.008;5.644;2024-03-17T08:35:19;14.00;99.90
45008;DHT22;30743;52.008;5.644;2024-03-17T08:37:45;13.80;99.90
45008;DHT22;30743;52.008;5.644;2024-03-17T08:40:11;13.90;99.90
45008;DHT22;30743;52.008;5.644;2024-03-17T08:42:37;13.70;99.90
45008;DHT22;30743;52.008;5.644;2024-03-17T08:45:03;13.70;99.90
45008;DHT22;30743;52.008;5.644;2024-03-17T08:47:29;13.80;99.90
45008;DHT22;30743;52.008;5.644;2024-03-17T08:49:54;13.90;99.90
45008;DHT22;30743;52.008;5.644;2024-03-17T08:52:20;14.00;99.90
45008;DHT22;30743;52.008;5.644;2024-03-17T08:54:49;13.90;99.90
45008;DHT22;30743;52.008;5.644;2024-03-17T08:57:18;13.90;99.90
45008;DHT22;30743;52.008;5.644;2024-03-17T08:59:47;13.90;99.90
45008;DHT22;30743;52.008;5.644;2024-03-17T09:02:13;13.80;99.90
45008;DHT22;30743;52.008;5.644;2024-03-17T09:04:42;14.00;99.90
45008;DHT22;30743;52.008;5.644;2024-03-17T09:07:08;13.90;99.90
45008;DHT22;30743;52.008;5.644;2024-03-17T09:09:33;14.00;99.90
45008;DHT22;30743;52.008;5.644;2024-03-17T09:11:59;14.00;99.90
45008;DHT22;30743;52.008;5.644;2024-03-17T09:14:25;14.30;99.90
45008;DHT22;30743;52.008;5.644;2024-03-17T09:16:50;14.30;99.90
45008;DHT22;30743;52.008;5.644;2024-03-17T09:19:16;14.40;99.90
45008;DHT22;30743;52.008;5.644;2024-03-17T09:21:41;14.60;99.90
45008;DHT22;30743;52.008;5.644;2024-03-17T09:24:08;14.50;99.90
45008;DHT22;30743;52.008;5.644;2024-03-17T09:26:34;14.40;99.90
45008;DHT22;30743;52.008;5.644;2024-03-17T09:29:00;14.50;99.90
45008;DHT22;30743;52.008;5.644;2024-03-17T09:31:26;14.40;99.90
45008;DHT22;30743;52.008;5.644;2024-03-17T09:33:52;14.30;99.90
45008;DHT22;30743;52.008;5.644;2024-03-17T09:36:17;14.30;99.90
45008;DHT22;30743;52.008;5.644;2024-03-17T09:38:43;14.30;99.90
45008;DHT22;30743;52.008;5.644;2024-03-17T09:41:24;14.60;99.90
45008;DHT22;30743;52.008;5.644;2024-03-17T09:43:53;14.70;99.90
45008;DHT22;30743;52.008;5.644;2024-03-17T09:46:19;14.80;99.90
45008;DHT22;30743;52.008;5.644;2024-03-17T09:48:46;14.90;99.90
45008;DHT22;30743;52.008;5.644;2024-03-17T09:51:25;15.00;99.90
45008;DHT22;30743;52.008;5.644;2024-03-17T09:53:51;15.10;99.90
45008;DHT22;30743;52.008;5.644;2024-03-17T09:56:19;15.50;99.90
45008;DHT22;30743;52.008;5.644;2024-03-17T09:58:48;15.70;99.90
45008;DHT22;30743;52.008;5.644;2024-03-17T10:01:14;16.00;99.90
45008;DHT22;30743;52.008;5.644;2024-03-17T10:03:53;16.50;99.90
45008;DHT22;30743;52.008;5.644;2024-03-17T10:06:23;16.70;99.90
45008;DHT22;30743;52.008;5.644;2024-03-17T10:08:51;17.30;99.90
45008;DHT22;30743;52.008;5.644;2024-03-17T10:11:19;17.80;99.90
45008;DHT22;30743;52.008;5.644;2024-03-17T10:13:46;18.20;99.90
45008;DHT22;30743;52.008;5.644;2024-03-17T10:16:23;18.90;99.90
45008;DHT22;30743;52.008;5.644;2024-03-17T10:18:50;19.10;99.90
45008;DHT22;30743;52.008;5.644;2024-03-17T10:21:43;18.80;99.90
45008;DHT22;30743;52.008;5.644;2024-03-17T10:24:10;19.00;99.90
45008;DHT22;30743;52.008;5.644;2024-03-17T10:26:43;19.30;99.90
45008;DHT22;30743;52.008;5.644;2024-03-17T10:29:22;18.80;99.90
45008;DHT22;30743;52.008;5.644;2024-03-17T10:34:38;19.10;99.90
45008;DHT22;30743;52.008;5.644;2024-03-17T10:39:33;18.90;99.90
45008;DHT22;30743;52.008;5.644;2024-03-17T10:42:04;18.90;99.90
45008;DHT22;30743;52.008;5.644;2024-03-17T10:44:34;18.70;99.90
45008;DHT22;30743;52.008;5.644;2024-03-17T10:47:02;18.20;99.90
45008;DHT22;30743;52.008;5.644;2024-03-17T10:49:30;18.00;99.90
45008;DHT22;30743;52.008;5.644;2024-03-17T10:52:03;17.50;99.90
45008;DHT22;30743;52.008;5.644;2024-03-17T10:54:30;17.00;99.90
45008;DHT22;30743;52.008;5.644;2024-03-17T10:59:41;16.80;99.90
45008;DHT22;30743;52.008;5.644;2024-03-17T11:02:26;16.70;99.90
45008;DHT22;30743;52.008;5.644;2024-03-17T11:05:02;16.80;99.90
45008;DHT22;30743;52.008;5.644;2024-03-17T11:07:30;16.70;99.90
45008;DHT22;30743;52.008;5.644;2024-03-17T11:09:58;16.90;99.90
45008;DHT22;30743;52.008;5.644;2024-03-17T11:12:46;17.00;99.90
45008;DHT22;30743;52.008;5.644;2024-03-17T11:20:38;17.60;99.90
45008;DHT22;30743;52.008;5.644;2024-03-17T11:23:04;17.70;99.90
45008;DHT22;30743;52.008;5.644;2024-03-17T11:25:37;17.90;99.90
45008;DHT22;30743;52.008;5.644;2024-03-17T11:28:09;18.10;99.90
45008;DHT22;30743;52.008;5.644;2024-03-17T11:46:39;17.70;99.90
45008;DHT22;30743;52.008;5.644;2024-03-17T11:49:06;17.70;99.90
45008;DHT22;30743;52.008;5.644;2024-03-17T11:51:34;17.70;99.90
45008;DHT22;30743;52.008;5.644;2024-03-17T11:54:00;17.60;99.90
45008;DHT22;30743;52.008;5.644;2024-03-17T11:56:26;17.50;99.90
45008;DHT22;30743;52.008;5.644;2024-03-17T11:59:06;17.70;99.90
45008;DHT22;30743;52.008;5.644;2024-03-17T12:01:34;17.50;99.90
45008;DHT22;30743;52.008;5.644;2024-03-17T12:04:00;17.30;99.90
45008;DHT22;30743;52.008;5.644;2024-03-17T12:06:33;17.00;99.90
45008;DHT22;30743;52.008;5.644;2024-03-17T12:09:20;16.80;99.90
45008;DHT22;30743;52.008;5.644;2024-03-17T12:12:03;16.70;99.90
45008;DHT22;30743;52.008;5.644;2024-03-17T12:14:38;16.30;99.90
45008;DHT22;30743;52.008;5.644;2024-03-17T12:17:06;16.10;99.90
45008;DHT22;30743;52.008;5.644;2024-03-17T12:19:33;16.00;99.90
45008;DHT22;30743;52.008;5.644;2024-03-17T12:21:59;15.90;99.90
45008;DHT22;30743;52.008;5.644;2024-03-17T12:24:28;15.90;99.90
45008;DHT22;30743;52.008;5.644;2024-03-17T12:26:55;16.00;99.90
45008;DHT22;30743;52.008;5.644;2024-03-17T12:29:29;16.30;99.90
45008;DHT22;30743;52.008;5.644;2024-03-17T12:32:00;16.40;99.90
45008;DHT22;30743;52.008;5.644;2024-03-17T12:34:30;16.20;99.90
45008;DHT22;30743;52.008;5.644;2024-03-17T12:36:57;16.20;99.90
45008;DHT22;30743;52.008;5.644;2024-03-17T12:39:24;16.20;99.90
45008;DHT22;30743;52.008;5.644;2024-03-17T12:44:47;16.50;99.90
45008;DHT22;30743;52.008;5.644;2024-03-17T12:49:52;16.90;99.90
45008;DHT22;30743;52.008;5.644;2024-03-17T12:55:17;17.20;99.90
45008;DHT22;30743;52.008;5.644;2024-03-17T13:00:47;17.10;99.90
45008;DHT22;30743;52.008;5.644;2024-03-17T13:03:24;17.10;99.90
45008;DHT22;30743;52.008;5.644;2024-03-17T13:05:50;17.00;99.90
45008;DHT22;30743;52.008;5.644;2024-03-17T13:08:16;17.00;99.90
45008;DHT22;30743;52.008;5.644;2024-03-17T13:10:41;16.90;99.90
45008;DHT22;30743;52.008;5.644;2024-03-17T13:13:12;16.80;99.90
45008;DHT22;30743;52.008;5.644;2024-03-17T13:15:41;16.80;99.90
45008;DHT22;30743;52.008;5.644;2024-03-17T13:18:07;16.90;99.90
45008;DHT22;30743;52.008;5.644;2024-03-17T13:20:33;17.00;99.90
45008;DHT22;30743;52.008;5.644;2024-03-17T13:22:59;17.00;99.90
45008;DHT22;30743;52.008;5.644;2024-03-17T13:25:29;16.80;99.90
45008;DHT22;30743;52.008;5.644;2024-03-17T13:28:00;16.70;99.90
45008;DHT22;30743;52.008;5.644;2024-03-17T13:30:27;16.60;99.90
45008;DHT22;30743;52.008;5.644;2024-03-17T13:32:54;16.70;99.90
45008;DHT22;30743;52.008;5.644;2024-03-17T13:35:28;16.70;99.90
45008;DHT22;30743;52.008;5.644;2024-03-17T13:37:55;16.90;99.90
45008;DHT22;30743;52.008;5.644;2024-03-17T13:40:22;17.10;99.90
45008;DHT22;30743;52.008;5.644;2024-03-17T13:42:49;17.10;99.90
45008;DHT22;30743;52.008;5.644;2024-03-17T13:45:16;17.30;99.90
45008;DHT22;30743;52.008;5.644;2024-03-17T13:47:46;17.40;99.90
45008;DHT22;30743;52.008;5.644;2024-03-17T13:50:12;17.40;99.90
45008;DHT22;30743;52.008;5.644;2024-03-17T13:52:41;17.40;99.90
45008;DHT22;30743;52.008;5.644;2024-03-17T13:57:39;17.30;99.90
45008;DHT22;30743;52.008;5.644;2024-03-17T14:00:05;17.30;99.90
45008;DHT22;30743;52.008;5.644;2024-03-17T14:02:33;17.20;99.90
45008;DHT22;30743;52.008;5.644;2024-03-17T14:04:58;17.20;99.90
45008;DHT22;30743;52.008;5.644;2024-03-17T14:07:24;17.40;99.90
45008;DHT22;30743;52.008;5.644;2024-03-17T14:09:50;17.50;99.90
45008;DHT22;30743;52.008;5.644;2024-03-17T14:12:16;17.20;99.90
45008;DHT22;30743;52.008;5.644;2024-03-17T14:14:41;17.30;99.90
45008;DHT22;30743;52.008;5.644;2024-03-17T14:17:09;17.60;99.90
45008;DHT22;30743;52.008;5.644;2024-03-17T14:19:34;17.70;99.90
45008;DHT22;30743;52.008;5.644;2024-03-17T14:22:00;17.80;99.90
45008;DHT22;30743;52.008;5.644;2024-03-17T14:24:26;18.00;99.90
45008;DHT22;30743;52.008;5.644;2024-03-17T14:26:52;18.00;99.90
45008;DHT22;30743;52.008;5.644;2024-03-17T14:29:18;17.90;99.90
45008;DHT22;30743;52.008;5.644;2024-03-17T14:31:43;17.70;99.90
45008;DHT22;30743;52.008;5.644;2024-03-17T14:34:10;17.40;99.90
45008;DHT22;30743;52.008;5.644;2024-03-17T14:36:36;17.50;99.90
45008;DHT22;30743;52.008;5.644;2024-03-17T14:39:02;17.30;99.90
45008;DHT22;30743;52.008;5.644;2024-03-17T14:41:29;17.50;99.90
45008;DHT22;30743;52.008;5.644;2024-03-17T14:43:56;17.60;99.90
45008;DHT22;30743;52.008;5.644;2024-03-17T14:46:22;17.60;99.90
45008;DHT22;30743;52.008;5.644;2024-03-17T14:48:48;17.60;99.90
45008;DHT22;30743;52.008;5.644;2024-03-17T14:51:19;17.60;99.90
45008;DHT22;30743;52.008;5.644;2024-03-17T14:53:47;17.60;99.90
45008;DHT22;30743;52.008;5.644;2024-03-17T14:56:18;17.40;99.90
45008;DHT22;30743;52.008;5.644;2024-03-17T14:58:44;17.20;99.90
45008;DHT22;30743;52.008;5.644;2024-03-17T15:01:12;17.00;99.90
45008;DHT22;30743;52.008;5.644;2024-03-17T15:03:37;17.20;99.90
45008;DHT22;30743;52.008;5.644;2024-03-17T15:06:11;17.40;99.90
45008;DHT22;30743;52.008;5.644;2024-03-17T15:08:37;17.50;99.90
45008;DHT22;30743;52.008;5.644;2024-03-17T15:11:03;17.60;99.90
45008;DHT22;30743;52.008;5.644;2024-03-17T15:13:29;17.50;99.90
45008;DHT22;30743;52.008;5.644;2024-03-17T15:15:54;17.50;99.90
45008;DHT22;30743;52.008;5.644;2024-03-17T15:18:21;17.70;99.90
45008;DHT22;30743;52.008;5.644;2024-03-17T15:20:53;17.60;99.90
45008;DHT22;30743;52.008;5.644;2024-03-17T15:23:20;17.70;99.90
45008;DHT22;30743;52.008;5.644;2024-03-17T15:25:46;17.60;99.90
45008;DHT22;30743;52.008;5.644;2024-03-17T15:28:11;17.50;99.90
45008;DHT22;30743;52.008;5.644;2024-03-17T15:30:38;17.50;99.90
45008;DHT22;30743;52.008;5.644;2024-03-17T15:33:04;17.40;99.90
45008;DHT22;30743;52.008;5.644;2024-03-17T15:35:30;17.50;99.90
45008;DHT22;30743;52.008;5.644;2024-03-17T15:37:57;17.50;99.90
45008;DHT22;30743;52.008;5.644;2024-03-17T15:40:22;17.50;99.90
45008;DHT22;30743;52.008;5.644;2024-03-17T15:42:49;17.50;99.90
45008;DHT22;30743;52.008;5.644;2024-03-17T15:45:16;17.60;99.90
45008;DHT22;30743;52.008;5.644;2024-03-17T15:47:43;17.50;99.90
45008;DHT22;30743;52.008;5.644;2024-03-17T15:50:10;17.40;99.90
45008;DHT22;30743;52.008;5.644;2024-03-17T15:52:36;17.40;99.90
45008;DHT22;30743;52.008;5.644;2024-03-17T15:55:03;17.40;99.90
45008;DHT22;30743;52.008;5.644;2024-03-17T15:57:31;17.40;99.90
45008;DHT22;30743;52.008;5.644;2024-03-17T15:59:57;17.50;99.90
45008;DHT22;30743;52.008;5.644;2024-03-17T16:02:24;17.60;99.90
45008;DHT22;30743;52.008;5.644;2024-03-17T16:04:50;17.70;99.90
45008;DHT22;30743;52.008;5.644;2024-03-17T16:07:18;17.70;99.90
45008;DHT22;30743;52.008;5.644;2024-03-17T16:09:43;17.70;99.90
45008;DHT22;30743;52.008;5.644;2024-03-17T16:12:10;17.70;99.90
45008;DHT22;30743;52.008;5.644;2024-03-17T16:14:35;17.40;99.90